createdAt,value
2023-01-28T00:01:17.544Z,103015.00
2023-01-28T00:03:44.305Z,103017.88
2023-01-28T00:06:15.370Z,103013.38
2023-01-28T00:08:42.390Z,103013.28
2023-01-28T00:11:11.484Z,103011.69
2023-01-28T00:13:38.984Z,103015.00
2023-01-28T00:16:11.513Z,103014.28
2023-01-28T00:18:38.279Z,103003.53
2023-01-28T00:21:07.438Z,103014.88
2023-01-28T00:23:37.382Z,103006.25
2023-01-28T00:26:14.850Z,103006.16
2023-01-28T00:28:42.345Z,103001.91
2023-01-28T00:31:10.941Z,102986.53
2023-01-28T00:33:37.869Z,102989.03
2023-01-28T00:36:06.592Z,102997.19
2023-01-28T00:38:34.370Z,102992.72
2023-01-28T00:41:09.728Z,102994.53
2023-01-28T00:43:37.248Z,102989.97
2023-01-28T00:46:05.195Z,102989.97
2023-01-28T00:48:31.786Z,102986.63
2023-01-28T00:50:58.425Z,102996.16
2023-01-28T00:53:25.071Z,102993.56
2023-01-28T00:55:51.715Z,102989.16
2023-01-28T00:58:19.282Z,102984.72
2023-01-28T01:00:46.139Z,102992.63
2023-01-28T01:03:12.795Z,102988.91
2023-01-28T01:05:39.348Z,102982.59
2023-01-28T01:08:06.031Z,102992.50
2023-01-28T01:10:32.611Z,102998.91
2023-01-28T01:12:59.276Z,102992.72
2023-01-28T01:15:25.852Z,102995.19
2023-01-28T01:17:53.284Z,102997.84
2023-01-28T01:20:22.867Z,102996.00
2023-01-28T01:22:49.432Z,102998.81
2023-01-28T01:25:17.351Z,103003.91
2023-01-28T01:27:46.123Z,103013.06
2023-01-28T01:30:13.141Z,103008.41
2023-01-28T01:32:39.709Z,103001.28
2023-01-28T01:35:08.196Z,103003.78
2023-01-28T01:37:35.796Z,103005.03
2023-01-28T01:40:04.947Z,103006.66
2023-01-28T01:42:34.329Z,102995.94
2023-01-28T01:45:14.207Z,103001.31
2023-01-28T01:48:03.644Z,103007.41
2023-01-28T01:50:39.791Z,103010.91
2023-01-28T01:53:12.292Z,103015.50
2023-01-28T01:55:41.749Z,103014.56
2023-01-28T01:58:12.064Z,103005.47
2023-01-28T02:00:39.696Z,103005.47
2023-01-28T02:03:06.508Z,103012.63
2023-01-28T02:05:33.308Z,103007.41
2023-01-28T02:08:20.488Z,103012.75
2023-01-28T02:10:53.821Z,103008.25
2023-01-28T02:13:23.343Z,103008.22
2023-01-28T02:15:50.273Z,103004.78
2023-01-28T02:18:16.899Z,103007.41
2023-01-28T02:21:08.054Z,102997.56
2023-01-28T02:24:15.486Z,102995.66
2023-01-28T02:26:44.776Z,102993.72
2023-01-28T02:29:17.970Z,102989.31
2023-01-28T02:31:53.060Z,103001.75
2023-01-28T02:34:22.281Z,102991.09
2023-01-28T02:36:49.484Z,102992.91
2023-01-28T02:39:27.387Z,102996.59
2023-01-28T02:41:57.526Z,102994.63
2023-01-28T02:44:24.103Z,103003.78
2023-01-28T02:47:11.712Z,102993.00
2023-01-28T02:49:42.860Z,102994.66
2023-01-28T02:52:54.195Z,102991.06
2023-01-28T02:55:30.768Z,102993.69
2023-01-28T02:58:29.708Z,102996.34
2023-01-28T03:01:10.351Z,102987.34
2023-01-28T03:03:51.428Z,102989.91
2023-01-28T03:06:24.448Z,102980.44
2023-01-28T03:09:18.638Z,102975.88
2023-01-28T03:12:05.896Z,102974.22
2023-01-28T03:14:52.501Z,102994.41
2023-01-28T03:17:44.767Z,102995.16
2023-01-28T03:20:30.956Z,102990.00
2023-01-28T03:23:19.090Z,102998.03
2023-01-28T03:26:05.614Z,102999.66
2023-01-28T03:28:51.466Z,102994.41
2023-01-28T03:31:38.672Z,102998.84
2023-01-28T03:34:24.073Z,103008.56
2023-01-28T03:36:50.939Z,103006.75
2023-01-28T03:39:19.392Z,103010.28
2023-01-28T03:42:05.740Z,103006.66
2023-01-28T03:44:51.613Z,102996.19
2023-01-28T03:47:26.972Z,103001.44
2023-01-28T03:49:54.961Z,103004.72
2023-01-28T03:52:26.573Z,103002.13
2023-01-28T03:54:53.198Z,103003.97
2023-01-28T03:57:22.713Z,102995.16
2023-01-28T03:59:49.840Z,102999.31
2023-01-28T04:02:17.442Z,103002.13
2023-01-28T04:04:44.047Z,102995.88
2023-01-28T04:07:11.295Z,102990.69
2023-01-28T04:09:38.100Z,102998.75
2023-01-28T04:12:05.276Z,102999.66
2023-01-28T04:14:32.415Z,102990.78
2023-01-28T04:16:59.206Z,102986.97
2023-01-28T04:19:26.076Z,102987.06
2023-01-28T04:21:55.785Z,102988.75
2023-01-28T04:24:23.016Z,102989.50
2023-01-28T04:26:49.657Z,102979.91
2023-01-28T04:29:16.250Z,102985.03
2023-01-28T04:31:42.852Z,102987.50
2023-01-28T04:34:09.982Z,102987.69
2023-01-28T04:36:36.645Z,102995.78
2023-01-28T04:39:03.548Z,102986.84
2023-01-28T04:41:30.392Z,102975.94
2023-01-28T04:43:56.948Z,102985.81
2023-01-28T04:46:23.552Z,102989.34
2023-01-28T04:48:50.145Z,102986.84
2023-01-28T04:51:16.720Z,102990.34
2023-01-28T04:53:43.272Z,102982.34
2023-01-28T04:56:09.817Z,102980.53
2023-01-28T04:58:36.390Z,102978.81
2023-01-28T05:01:03.044Z,102979.41
2023-01-28T05:03:29.680Z,102981.31
2023-01-28T05:05:56.220Z,102981.19
2023-01-28T05:08:22.773Z,102972.47
2023-01-28T05:10:49.360Z,102968.97
2023-01-28T05:13:15.896Z,102970.53
2023-01-28T05:15:42.471Z,102965.19
2023-01-28T05:18:09.070Z,102969.69
2023-01-28T05:20:35.630Z,102973.31
2023-01-28T05:23:02.241Z,102975.97
2023-01-28T05:25:28.856Z,102975.84
2023-01-28T05:27:55.482Z,102984.72
2023-01-28T05:30:22.303Z,102985.41
2023-01-28T05:32:49.084Z,102981.31
2023-01-28T05:35:16.117Z,102967.88
2023-01-28T05:37:42.878Z,102968.53
2023-01-28T05:40:10.154Z,102965.09
2023-01-28T05:42:36.731Z,102956.47
2023-01-28T05:45:03.358Z,102953.91
2023-01-28T05:47:29.953Z,102962.91
2023-01-28T05:49:56.557Z,102957.66
2023-01-28T05:52:23.154Z,102951.41
2023-01-28T05:54:49.897Z,102958.22
2023-01-28T05:57:16.519Z,102960.09
2023-01-28T05:59:43.087Z,102962.50
2023-01-28T06:02:09.700Z,102968.72
2023-01-28T06:04:36.269Z,102954.75
2023-01-28T06:07:02.813Z,102956.56
2023-01-28T06:09:29.386Z,102963.41
2023-01-28T06:11:55.956Z,102968.13
2023-01-28T06:14:22.541Z,102977.56
2023-01-28T06:16:50.170Z,102973.97
2023-01-28T06:19:16.725Z,102984.28
2023-01-28T06:21:43.535Z,102975.03
2023-01-28T06:24:10.214Z,102970.59
2023-01-28T06:26:36.885Z,102974.28
2023-01-28T06:29:03.527Z,102986.84
2023-01-28T06:31:30.187Z,102981.44
2023-01-28T06:33:56.793Z,102977.28
2023-01-28T06:36:23.348Z,102976.22
2023-01-28T06:38:49.900Z,102982.84
2023-01-28T06:41:16.441Z,102985.94
2023-01-28T06:43:43.048Z,102983.28
2023-01-28T06:46:09.652Z,102991.31
2023-01-28T06:48:36.239Z,102996.22
2023-01-28T06:51:02.801Z,102999.22
2023-01-28T06:53:29.415Z,102990.56
2023-01-28T06:55:55.969Z,102986.91
2023-01-28T06:58:22.688Z,102993.28
2023-01-28T07:00:49.243Z,102986.13
2023-01-28T07:03:15.951Z,102984.13
2023-01-28T07:05:42.573Z,102986.75
2023-01-28T07:08:09.156Z,102987.88
2023-01-28T07:10:35.753Z,102984.84
2023-01-28T07:13:02.481Z,102989.28
2023-01-28T07:15:29.389Z,102993.97
2023-01-28T07:17:55.991Z,102998.09
2023-01-28T07:20:22.578Z,102998.38
2023-01-28T07:22:49.195Z,102993.66
2023-01-28T07:25:15.764Z,102994.50
2023-01-28T07:27:53.246Z,102996.16
2023-01-28T07:30:20.870Z,103000.53
2023-01-28T07:32:47.746Z,102999.28
2023-01-28T07:35:14.357Z,103000.75
2023-01-28T07:37:40.924Z,102995.84
2023-01-28T07:40:08.271Z,103000.47
2023-01-28T07:42:34.852Z,103002.56
2023-01-28T07:45:01.718Z,103024.88
2023-01-28T07:47:28.488Z,103015.97
2023-01-28T07:49:55.108Z,103014.94
2023-01-28T07:52:21.768Z,103028.16
2023-01-28T07:54:48.400Z,103031.56
2023-01-28T07:57:15.013Z,103027.75
2023-01-28T07:59:41.588Z,103041.00
2023-01-28T08:02:11.669Z,103038.28
2023-01-28T08:04:40.487Z,103041.56
2023-01-28T08:07:08.270Z,103036.06
2023-01-28T08:09:34.879Z,103039.53
2023-01-28T08:12:02.695Z,103035.00
2023-01-28T08:14:29.300Z,103046.25
2023-01-28T08:16:55.940Z,103050.09
2023-01-28T08:19:22.545Z,103065.16
2023-01-28T08:21:49.165Z,103054.25
2023-01-28T08:24:16.250Z,103058.47
2023-01-28T08:26:43.421Z,103058.31
2023-01-28T08:29:10.007Z,103062.78
2023-01-28T08:31:36.662Z,103063.66
2023-01-28T08:34:03.224Z,103070.69
2023-01-28T08:36:29.783Z,103070.50
2023-01-28T08:38:56.335Z,103072.19
2023-01-28T08:41:23.333Z,103069.47
2023-01-28T08:43:49.920Z,103059.59
2023-01-28T08:46:16.654Z,103080.94
2023-01-28T08:48:43.296Z,103078.22
2023-01-28T08:51:09.874Z,103076.25
2023-01-28T08:53:36.410Z,103072.81
2023-01-28T08:56:02.975Z,103077.03
2023-01-28T08:58:29.535Z,103084.28
2023-01-28T09:00:56.135Z,103069.66
2023-01-28T09:03:22.705Z,103083.78
2023-01-28T09:05:50.373Z,103084.81
2023-01-28T09:08:17.134Z,103083.59
2023-01-28T09:10:43.929Z,103078.25
2023-01-28T09:13:13.153Z,103081.47
2023-01-28T09:15:39.866Z,103086.81
2023-01-28T09:18:06.806Z,103067.38
2023-01-28T09:20:33.872Z,103070.91
2023-01-28T09:23:02.419Z,103073.44
2023-01-28T09:25:29.026Z,103069.94
2023-01-28T09:27:55.671Z,103073.44
2023-01-28T09:30:22.444Z,103069.09
2023-01-28T09:32:53.457Z,103074.34
2023-01-28T09:35:20.162Z,103081.69
2023-01-28T09:37:47.367Z,103079.91
2023-01-28T09:40:43.011Z,103076.25
2023-01-28T09:43:42.296Z,103080.59
2023-01-28T09:46:12.988Z,103086.81
2023-01-28T09:48:53.526Z,103085.28
2023-01-28T09:51:32.476Z,103072.81
2023-01-28T09:54:02.994Z,103083.47
2023-01-28T09:56:32.527Z,103087.09
2023-01-28T09:59:17.191Z,103072.13
2023-01-28T10:02:14.346Z,103064.88
2023-01-28T10:04:49.704Z,103051.56
2023-01-28T10:07:28.354Z,103046.13
2023-01-28T10:10:14.073Z,103035.44
2023-01-28T10:13:11.491Z,103033.75
2023-01-28T10:16:11.713Z,103018.72
2023-01-28T10:18:50.115Z,103016.03
2023-01-28T10:21:23.260Z,103017.28
2023-01-28T10:23:58.660Z,103001.91
2023-01-28T10:26:31.319Z,103001.25
2023-01-28T10:29:03.619Z,103001.22
2023-01-28T10:31:36.876Z,102995.34
2023-01-28T10:34:04.582Z,102994.81
2023-01-28T10:36:31.199Z,102975.31
2023-01-28T10:38:57.847Z,102995.06
2023-01-28T10:41:26.537Z,102995.13
2023-01-28T10:43:53.123Z,102984.59
2023-01-28T10:46:25.372Z,102982.00
2023-01-28T10:48:54.910Z,102988.06
2023-01-28T10:51:31.625Z,102989.88
2023-01-28T10:53:58.229Z,102994.94
2023-01-28T10:56:27.271Z,103002.03
2023-01-28T10:59:04.796Z,103011.63
2023-01-28T11:01:44.856Z,103016.44
2023-01-28T11:04:25.232Z,103016.50
2023-01-28T11:07:17.892Z,103020.19
2023-01-28T11:09:47.164Z,103019.44
2023-01-28T11:12:22.356Z,103020.38
2023-01-28T11:14:55.857Z,103025.63
2023-01-28T11:17:24.802Z,103022.75
2023-01-28T11:19:56.123Z,103012.13
2023-01-28T11:22:52.230Z,103003.19
2023-01-28T11:25:29.433Z,102999.69
2023-01-28T11:27:56.334Z,103005.03
2023-01-28T11:30:32.639Z,103012.13
2023-01-28T11:33:17.166Z,102995.38
2023-01-28T11:35:53.552Z,102990.88
2023-01-28T11:38:23.189Z,102989.16
2023-01-28T11:40:54.645Z,102982.97
2023-01-28T11:43:23.689Z,102971.47
2023-01-28T11:46:13.452Z,102974.00
2023-01-28T11:48:46.065Z,102971.31
2023-01-28T11:51:22.824Z,102964.06
2023-01-28T11:53:59.515Z,102954.44
2023-01-28T11:56:39.787Z,102965.19
2023-01-28T11:59:20.667Z,102952.91
2023-01-28T12:01:59.036Z,102949.69
2023-01-28T12:04:50.173Z,102942.38
2023-01-28T12:07:47.560Z,102948.19
2023-01-28T12:10:14.528Z,102948.50
2023-01-28T12:12:53.567Z,102955.78
2023-01-28T12:15:39.476Z,102932.00
2023-01-28T12:18:21.070Z,102923.41
2023-01-28T12:21:26.153Z,102927.28
2023-01-28T12:23:58.663Z,102931.88
2023-01-28T12:27:02.364Z,102931.03
2023-01-28T12:29:39.328Z,102934.09
2023-01-28T12:32:31.806Z,102937.72
2023-01-28T12:35:04.420Z,102953.91
2023-01-28T12:38:03.063Z,102953.25
2023-01-28T12:40:53.978Z,102950.56
2023-01-28T12:43:42.908Z,102956.03
2023-01-28T12:46:27.459Z,102946.84
2023-01-28T12:49:00.026Z,102950.16
2023-01-28T12:51:35.887Z,102951.69
2023-01-28T12:54:22.892Z,102934.66
2023-01-28T12:56:53.603Z,102936.09
2023-01-28T12:59:23.172Z,102931.63
2023-01-28T13:02:04.557Z,102923.63
2023-01-28T13:04:51.747Z,102921.81
2023-01-28T13:07:25.755Z,102915.59
2023-01-28T13:10:03.226Z,102910.22
2023-01-28T13:12:29.785Z,102916.31
2023-01-28T13:14:56.372Z,102918.06
2023-01-28T13:17:29.132Z,102923.34
2023-01-28T13:19:56.186Z,102922.41
2023-01-28T13:22:28.463Z,102917.06
2023-01-28T13:24:55.175Z,102902.69
2023-01-28T13:27:25.005Z,102906.25
2023-01-28T13:30:06.600Z,102903.50
2023-01-28T13:32:36.035Z,102901.75
2023-01-28T13:35:07.709Z,102907.91
2023-01-28T13:37:44.605Z,102904.38
2023-01-28T13:40:14.195Z,102905.28
2023-01-28T13:42:41.571Z,102911.56
2023-01-28T13:45:17.570Z,102905.25
2023-01-28T13:47:47.302Z,102895.50
2023-01-28T13:50:20.835Z,102900.00
2023-01-28T13:52:49.403Z,102891.88
2023-01-28T13:55:42.749Z,102891.88
2023-01-28T13:58:46.464Z,102897.13
2023-01-28T14:01:33.425Z,102909.59
2023-01-28T14:04:38.057Z,102905.97
2023-01-28T14:07:23.489Z,102922.13
2023-01-28T14:10:06.902Z,102926.56
2023-01-28T14:12:59.617Z,102938.91
2023-01-28T14:15:56.240Z,102926.44
2023-01-28T14:18:35.492Z,102929.94
2023-01-28T14:21:03.883Z,102930.84
2023-01-28T14:23:32.420Z,102927.16
2023-01-28T14:26:11.349Z,102945.00
2023-01-28T14:28:43.890Z,102928.84
2023-01-28T14:31:23.272Z,102912.78
2023-01-28T14:33:49.937Z,102917.25
2023-01-28T14:36:16.576Z,102912.69
2023-01-28T14:38:44.609Z,102927.03
2023-01-28T14:41:21.428Z,102935.84
2023-01-28T14:43:48.028Z,102929.59
2023-01-28T14:46:38.914Z,102925.16
2023-01-28T14:49:26.590Z,102925.06
2023-01-28T14:51:59.134Z,102921.53
2023-01-28T14:55:17.363Z,102912.50
2023-01-28T14:57:49.768Z,102925.78
2023-01-28T15:00:36.405Z,102932.00
2023-01-28T15:03:29.907Z,102939.16
2023-01-28T15:06:14.657Z,102921.31
2023-01-28T15:08:41.214Z,102919.44
2023-01-28T15:11:11.283Z,102922.88
2023-01-28T15:13:39.979Z,102921.09
2023-01-28T15:16:06.982Z,102917.53
2023-01-28T15:18:51.875Z,102922.81
2023-01-28T15:21:22.640Z,102930.84
2023-01-28T15:23:58.770Z,102918.34
2023-01-28T15:26:27.919Z,102924.63
2023-01-28T15:28:55.703Z,102906.75
2023-01-28T15:31:28.788Z,102908.50
2023-01-28T15:34:02.672Z,102901.50
2023-01-28T15:36:29.801Z,102899.69
2023-01-28T15:38:57.352Z,102901.31
2023-01-28T15:41:29.483Z,102903.97
2023-01-28T15:43:56.091Z,102894.13
2023-01-28T15:46:22.786Z,102888.78
2023-01-28T15:49:00.108Z,102880.03
2023-01-28T15:51:28.712Z,102890.63
2023-01-28T15:54:04.779Z,102888.88
2023-01-28T15:56:31.583Z,102875.44
2023-01-28T15:59:09.716Z,102879.91
2023-01-28T16:01:36.283Z,102886.19
2023-01-28T16:04:06.954Z,102884.25
2023-01-28T16:06:38.324Z,102878.03
2023-01-28T16:09:19.366Z,102894.22
2023-01-28T16:11:46.011Z,102892.41
2023-01-28T16:14:46.192Z,102894.22
2023-01-28T16:17:24.554Z,102887.09
2023-01-28T16:20:01.738Z,102884.41
2023-01-28T16:22:37.377Z,102885.16
2023-01-28T16:25:23.576Z,102886.22
2023-01-28T16:27:50.273Z,102894.94
2023-01-28T16:30:17.534Z,102886.97
2023-01-28T16:32:44.871Z,102890.44
2023-01-28T16:35:20.387Z,102897.75
2023-01-28T16:37:48.359Z,102888.88
2023-01-28T16:40:17.762Z,102903.13
2023-01-28T16:42:44.878Z,102902.16
2023-01-28T16:45:20.141Z,102904.91
2023-01-28T16:47:47.116Z,102908.44
2023-01-28T16:50:14.855Z,102903.00
2023-01-28T16:52:43.587Z,102911.97
2023-01-28T16:55:15.190Z,102895.81
2023-01-28T16:57:42.427Z,102910.16
2023-01-28T17:00:17.315Z,102905.66
2023-01-28T17:02:44.564Z,102912.03
2023-01-28T17:05:11.642Z,102907.75
2023-01-28T17:07:38.604Z,102906.25
2023-01-28T17:10:05.793Z,102903.81
2023-01-28T17:12:32.404Z,102925.41
2023-01-28T17:14:59.000Z,102930.06
2023-01-28T17:17:25.659Z,102930.06
2023-01-28T17:19:52.349Z,102934.66
2023-01-28T17:22:18.899Z,102943.47
2023-01-28T17:24:46.432Z,102941.81
2023-01-28T17:27:13.006Z,102953.44
2023-01-28T17:29:39.593Z,102959.69
2023-01-28T17:32:06.384Z,102968.63
2023-01-28T17:34:32.963Z,102964.13
2023-01-28T17:36:59.642Z,102955.22
2023-01-28T17:39:26.266Z,102960.56
2023-01-28T17:41:52.980Z,102952.44
2023-01-28T17:44:19.884Z,102950.72
2023-01-28T17:46:46.659Z,102961.34
2023-01-28T17:49:13.679Z,102964.81
2023-01-28T17:51:40.542Z,102966.63
2023-01-28T17:54:07.162Z,102966.69
2023-01-28T17:56:33.887Z,102960.09
2023-01-28T17:59:06.573Z,102956.84
2023-01-28T18:01:34.484Z,102954.91
2023-01-28T18:04:01.320Z,102954.88
2023-01-28T18:06:32.373Z,102951.19
2023-01-28T18:08:58.982Z,102943.16
2023-01-28T18:11:25.721Z,102944.88
2023-01-28T18:13:52.300Z,102937.59
2023-01-28T18:16:19.827Z,102940.84
2023-01-28T18:18:47.381Z,102948.13
2023-01-28T18:21:54.144Z,102940.91
2023-01-28T18:24:25.229Z,102934.34
2023-01-28T18:26:52.345Z,102938.75
2023-01-28T18:29:20.907Z,102949.91
2023-01-28T18:31:48.442Z,102940.34
2023-01-28T18:34:15.361Z,102952.47
2023-01-28T18:36:42.239Z,102949.63
2023-01-28T18:39:13.382Z,102952.47
2023-01-28T18:41:40.499Z,102951.81
2023-01-28T18:44:09.130Z,102964.06
2023-01-28T18:46:36.248Z,102963.25
2023-01-28T18:49:02.973Z,102954.25
2023-01-28T18:51:30.800Z,102949.34
2023-01-28T18:54:02.589Z,102947.78
2023-01-28T18:56:32.198Z,102943.16
2023-01-28T18:59:04.611Z,102945.72
2023-01-28T19:01:32.561Z,102954.03
2023-01-28T19:04:00.058Z,102945.09
2023-01-28T19:06:28.927Z,102942.94
2023-01-28T19:08:57.968Z,102942.78
2023-01-28T19:11:26.210Z,102943.50
2023-01-28T19:13:52.888Z,102946.16
2023-01-28T19:16:20.509Z,102944.56
2023-01-28T19:18:54.692Z,102943.13
2023-01-28T19:21:22.413Z,102942.28
2023-01-28T19:23:55.338Z,102951.63
2023-01-28T19:26:22.569Z,102946.31
2023-01-28T19:28:49.683Z,102940.22
2023-01-28T19:31:18.939Z,102943.66
2023-01-28T19:33:45.939Z,102936.84
2023-01-28T19:36:13.626Z,102935.56
2023-01-28T19:38:40.935Z,102926.59
2023-01-28T19:41:07.913Z,102924.09
2023-01-28T19:43:34.843Z,102932.19
2023-01-28T19:46:03.843Z,102926.03
2023-01-28T19:48:31.076Z,102920.41
2023-01-28T19:50:57.722Z,102920.41
2023-01-28T19:53:24.343Z,102926.28
2023-01-28T19:55:52.284Z,102919.44
2023-01-28T19:58:19.045Z,102911.56
2023-01-28T20:00:45.708Z,102908.31
2023-01-28T20:03:12.870Z,102902.00
2023-01-28T20:05:39.478Z,102925.09
2023-01-28T20:08:06.273Z,102917.16
2023-01-28T20:10:32.925Z,102919.69
2023-01-28T20:12:59.497Z,102909.00
2023-01-28T20:15:26.193Z,102910.47
2023-01-28T20:17:52.822Z,102908.84
2023-01-28T20:20:19.398Z,102903.66
2023-01-28T20:22:45.947Z,102909.06
2023-01-28T20:25:12.633Z,102910.72
2023-01-28T20:27:39.246Z,102912.69
2023-01-28T20:30:06.386Z,102907.19
2023-01-28T20:32:33.017Z,102916.00
2023-01-28T20:34:59.660Z,102921.16
2023-01-28T20:37:26.254Z,102927.16
2023-01-28T20:39:52.889Z,102919.47
2023-01-28T20:42:19.483Z,102914.03
2023-01-28T20:44:46.034Z,102913.22
2023-01-28T20:47:12.587Z,102913.25
2023-01-28T20:49:39.177Z,102910.56
2023-01-28T20:52:05.818Z,102901.44
2023-01-28T20:54:32.398Z,102901.41
2023-01-28T20:56:58.968Z,102898.38
2023-01-28T20:59:25.706Z,102893.97
2023-01-28T21:01:52.350Z,102902.47
2023-01-28T21:04:18.964Z,102902.41
2023-01-28T21:06:45.539Z,102907.81
2023-01-28T21:09:12.194Z,102910.25
2023-01-28T21:11:38.755Z,102914.53
2023-01-28T21:14:05.335Z,102913.88
2023-01-28T21:16:31.997Z,102921.59
2023-01-28T21:18:58.579Z,102917.88
2023-01-28T21:21:27.677Z,102908.84
2023-01-28T21:23:56.913Z,102906.16
2023-01-28T21:26:24.042Z,102901.97
2023-01-28T21:28:50.673Z,102899.78
2023-01-28T21:31:19.213Z,102901.50
2023-01-28T21:33:54.911Z,102894.28
2023-01-28T21:36:24.089Z,102892.75
2023-01-28T21:38:55.843Z,102887.34
2023-01-28T21:41:22.436Z,102886.19
2023-01-28T21:43:52.236Z,102890.94
2023-01-28T21:46:19.801Z,102884.03
2023-01-28T21:48:46.869Z,102873.38
2023-01-28T21:51:31.932Z,102859.75
2023-01-28T21:53:58.518Z,102871.41
2023-01-28T21:56:25.083Z,102859.75
2023-01-28T21:59:10.189Z,102864.09
2023-01-28T22:01:36.798Z,102853.22
2023-01-28T22:04:03.694Z,102843.66
2023-01-28T22:06:30.313Z,102847.91
2023-01-28T22:08:56.999Z,102853.44
2023-01-28T22:11:23.709Z,102848.09
2023-01-28T22:13:50.533Z,102851.53
2023-01-28T22:16:17.377Z,102854.88
2023-01-28T22:18:44.035Z,102846.16
2023-01-28T22:21:12.281Z,102841.50
2023-01-28T22:23:39.347Z,102836.97
2023-01-28T22:26:05.956Z,102829.66
2023-01-28T22:28:32.556Z,102830.69
2023-01-28T22:31:10.883Z,102827.84
2023-01-28T22:33:38.014Z,102818.31
2023-01-28T22:36:06.810Z,102826.97
2023-01-28T22:38:33.717Z,102825.19
2023-01-28T22:41:07.200Z,102820.63
2023-01-28T22:43:33.678Z,102829.50
2023-01-28T22:46:01.107Z,102821.56
2023-01-28T22:48:28.048Z,102822.41
2023-01-28T22:50:54.657Z,102819.81
2023-01-28T22:53:21.284Z,102809.00
2023-01-28T22:55:50.879Z,102808.22
2023-01-28T22:58:17.444Z,102815.31
2023-01-28T23:00:44.022Z,102820.72
2023-01-28T23:03:10.624Z,102825.00
2023-01-28T23:05:37.573Z,102829.50
2023-01-28T23:08:10.952Z,102828.63
2023-01-28T23:10:38.924Z,102841.84
2023-01-28T23:13:06.335Z,102842.03
2023-01-28T23:15:51.627Z,102849.06
2023-01-28T23:18:38.623Z,102841.84
2023-01-28T23:21:38.903Z,102843.56
2023-01-28T23:24:20.832Z,102834.63
2023-01-28T23:26:55.636Z,102824.13
2023-01-28T23:29:24.528Z,102817.81
2023-01-28T23:32:03.857Z,102816.00
2023-01-28T23:34:39.551Z,102825.88
2023-01-28T23:37:08.423Z,102832.81
2023-01-28T23:39:35.494Z,102834.72
2023-01-28T23:42:20.931Z,102832.22
2023-01-28T23:44:47.806Z,102823.03
2023-01-28T23:47:14.812Z,102815.13
2023-01-28T23:49:41.755Z,102830.19
2023-01-28T23:52:08.591Z,102829.38
2023-01-28T23:54:35.446Z,102825.78
2023-01-28T23:57:02.702Z,102831.19
2023-01-28T23:59:29.255Z,102827.56
